Cote D IVoirian Star — A8SL4 — position and weather

sailwx.info

Track history (hours):
 
Tides and Currents Weather Stations Pressure Air Temp Water Temp Dewpoint Dewpoint Depression Visibility Wind Speed Wind Dir Waves Ship Positions

Cote D IVoirian Star

Last reported at 2015-Jul-22 07:16 UTC. Time now 2015-Jul-28 15:23 UTC.
Position N 49°60' W 002°53'.

Length 185 m; draft 8 m.

Type: Cargo ship. MMSI: 636014241.

Date/timePositionNaut miles runAvg speedWind from/ knotsBaromVisibWave heightAir tempDewpointWater temp
2015-Jul-22 07:16N 49°60' W 002°53'11118.8
2015-Jul-22 01:22N 50°31' W 000°06'1515.8
2015-Jul-22 00:25N 50°34' E 000°17'1315.7
2015-Jul-21 23:34N 50°39' E 000°37'1717.4
2015-Jul-21 22:34N 50°50' E 000°58'1918.9
2015-Jul-21 21:33N 51°02' E 001°22'1919.3
2015-Jul-21 20:34N 51°14' E 001°46'1615.5
2015-Jul-21 19:34N 51°24' E 002°05'1615.8
2015-Jul-21 18:34N 51°23' E 002°30'1313.4
2015-Jul-21 17:33N 51°22' E 002°51'1413.5
2015-Jul-21 16:33N 51°24' E 003°13'1313.1
2015-Jul-21 15:34N 51°25' E 003°34'6 6.3
2015-Jul-21 14:33N 51°23' E 003°43'1110.7
2015-Jul-21 13:34N 51°26' E 003°60'10 9.7
2015-Jul-21 12:33N 51°22' E 004°13'6 6.5
2015-Jul-21 11:33N 51°16' E 004°17'1 1.2
2015-Jul-21 10:33N 51°16' E 004°15'0 0.1
2015-Jul-21 09:33N 51°16' E 004°15'0 0.0
2015-Jul-21 08:33N 51°16' E 004°15'0 0.0
2015-Jul-21 07:33N 51°16' E 004°15'0 0.0
2015-Jul-21 06:33N 51°16' E 004°15'0 0.0
2015-Jul-21 05:33N 51°16' E 004°15'0 0.0
2015-Jul-21 04:30N 51°16' E 004°15'0 0.0
2015-Jul-21 03:33N 51°16' E 004°15'0 0.0
2015-Jul-21 02:33N 51°16' E 004°15'0 0.0
2015-Jul-21 01:33N 51°16' E 004°15'0 0.0
2015-Jul-21 00:33N 51°16' E 004°15'0 0.0
2015-Jul-20 23:33N 51°16' E 004°15'0 0.0
2015-Jul-20 22:33N 51°16' E 004°15'0 0.0
2015-Jul-20 21:33N 51°16' E 004°15'0 0.0
2015-Jul-20 20:33N 51°16' E 004°15'0 0.0
2015-Jul-20 19:33N 51°16' E 004°15'0 0.0
2015-Jul-20 18:33N 51°16' E 004°15'0 0.0
2015-Jul-20 17:33N 51°16' E 004°15'0 0.0
2015-Jul-20 16:33N 51°16' E 004°15'0 0.0
2015-Jul-20 15:33N 51°16' E 004°15'0 0.0
2015-Jul-20 14:33N 51°16' E 004°15'0 0.0
2015-Jul-20 13:33N 51°16' E 004°15'0 0.0
2015-Jul-20 12:33N 51°16' E 004°15'0 0.0
2015-Jul-20 11:33N 51°16' E 004°15'0 0.0
2015-Jul-20 10:33N 51°16' E 004°15'0 0.0
2015-Jul-20 09:33N 51°16' E 004°15'0 0.0
2015-Jul-20 08:30N 51°16' E 004°15'0 0.0
2015-Jul-20 07:31N 51°16' E 004°15'0 0.0
2015-Jul-20 06:31N 51°16' E 004°15'0 0.0
2015-Jul-20 05:31N 51°16' E 004°15'0 0.0
2015-Jul-20 04:31N 51°16' E 004°15'0 0.0
2015-Jul-20 03:31N 51°16' E 004°15'0 0.0
2015-Jul-20 02:31N 51°16' E 004°15'0 0.0
2015-Jul-20 01:31N 51°16' E 004°15'0 0.0
2015-Jul-20 00:31N 51°16' E 004°15'0 0.0
2015-Jul-19 23:31N 51°16' E 004°15'0 0.0
2015-Jul-19 22:31N 51°16' E 004°15'0 0.0
2015-Jul-19 21:31N 51°16' E 004°15'0 0.0
2015-Jul-19 20:31N 51°16' E 004°15'0 0.0
2015-Jul-19 19:28N 51°16' E 004°15'1 1.5
2015-Jul-19 18:33N 51°16' E 004°17'2 2.2
2015-Jul-19 17:33N 51°18' E 004°17'8 7.6
2015-Jul-19 16:33N 51°22' E 004°07'10 9.9
2015-Jul-19 15:33N 51°21' E 003°51'1212.0
2015-Jul-19 14:34N 51°25' E 003°33'1817.8
2015-Jul-19 13:33N 51°24' E 003°05'1616.0
2015-Jul-19 12:33N 51°22' E 002°39'1615.6
2015-Jul-19 11:33N 51°17' E 002°16'1817.9
2015-Jul-19 10:33N 51°09' E 001°50'1515.2
2015-Jul-19 09:33N 50°59' E 001°33'3716.7
2015-Jul-19 07:20N 50°30' E 000°54'2118.3
2015-Jul-19 06:11N 50°25' E 000°23'3216.8
2015-Jul-19 04:18N 50°28' W 000°27'32 8.5
2015-Jul-19 00:31N 50°49' W 001°05'0 0.0
2015-Jul-18 23:31N 50°49' W 001°05'0 0.0
2015-Jul-18 22:31N 50°49' W 001°05'0 0.0
2015-Jul-18 21:31N 50°49' W 001°05'0 0.0
2015-Jul-18 20:31N 50°49' W 001°05'0 0.0
2015-Jul-18 19:31N 50°49' W 001°05'0 0.0
2015-Jul-18 18:31N 50°49' W 001°05'0 0.0
2015-Jul-18 17:31N 50°49' W 001°05'0 0.0
2015-Jul-18 16:31N 50°49' W 001°05'0 0.0
2015-Jul-18 15:31N 50°49' W 001°05'0 0.0
2015-Jul-18 14:31N 50°49' W 001°05'0 0.0
2015-Jul-18 13:31N 50°49' W 001°05'0 0.0
2015-Jul-18 12:31N 50°49' W 001°05'0 0.0
2015-Jul-18 11:31N 50°49' W 001°05'0 0.1
2015-Jul-18 10:33N 50°49' W 001°06'8 7.8
2015-Jul-18 09:33N 50°42' W 000°58'6 6.1
2015-Jul-18 08:34N 50°36' W 000°59'1919.1
2015-Jul-18 07:33N 50°24' W 001°22'2820.5
2015-Jul-18 06:12N 50°08' W 001°58'80918.5
2015-Jul-16 10:29N 38°47' W 012°10'4519.9
2015-Jul-16 08:14N 38°05' W 012°26'1419.4
2015-Jul-16 07:32N 37°51' W 012°31'3819.1
2015-Jul-16 05:32N 37°15' W 012°44'8418.7
2015-Jul-16 01:04N 35°55' W 013°12'1018.8
2015-Jul-16 00:32N 35°45' W 013°16'1818.6
2015-Jul-15 23:33N 35°27' W 013°22'1918.7
2015-Jul-15 22:33N 35°09' W 013°28'1918.9
2015-Jul-15 21:33N 34°51' W 013°34'1818.4
2015-Jul-15 20:33N 34°34' W 013°41'1918.6
2015-Jul-15 19:33N 34°16' W 013°47'1818.5
2015-Jul-15 18:33N 33°58' W 013°53'1918.7
2015-Jul-15 17:32N 33°40' W 013°59'1918.9
2015-Jul-15 16:33N 33°22' W 014°05'3819.0
2015-Jul-15 14:33N 32°45' W 014°18'2419.1
2015-Jul-15 13:16N 32°22' W 014°26'1418.8
2015-Jul-15 12:33N 32°09' W 014°31'1918.9
2015-Jul-15 11:33N 31°51' W 014°37'1919.0
2015-Jul-15 10:33N 31°32' W 014°43'2019.0
2015-Jul-15 09:30N 31°13' W 014°49'1919.0
2015-Jul-15 08:30N 30°55' W 014°55'1819.1
2015-Jul-15 07:33N 30°37' W 015°01'1919.3
2015-Jul-15 06:33N 30°19' W 015°07'2119.3
2015-Jul-15 05:29N 29°59' W 015°14'1819.2
2015-Jul-15 04:33N 29°42' W 015°19'1919.0
2015-Jul-15 03:33N 29°23' W 015°25'1919.0
2015-Jul-15 02:33N 29°05' W 015°31'1919.1
2015-Jul-15 01:34N 28°47' W 015°37'1918.5
2015-Jul-15 00:33N 28°30' W 015°46'5217.5
2015-Jul-14 21:33N 27°46' W 016°18'1817.9
2015-Jul-14 20:32N 27°28' W 016°23'7518.6
2015-Jul-14 16:32N 26°16' W 016°43'  
Track history (hours):
 
Tides and Currents Weather Stations Pressure Air Temp Water Temp Dewpoint Dewpoint Depression Visibility Wind Speed Wind Dir Waves Ship Positions

Cote D IVoirian Star

Last reported at 2015-Jul-22 07:16 UTC. Time now 2015-Jul-28 15:23 UTC.
Position N 49°60' W 002°53'.

Length 185 m; draft 8 m.

Type: Cargo ship. MMSI: 636014241.

Date/timePositionNaut miles runAvg speedWind from/ knotsBaromVisibWave heightAir tempDewpointWater temp
2015-Jul-22 07:16N 49°60' W 002°53'11118.8
2015-Jul-22 01:22N 50°31' W 000°06'1515.8
2015-Jul-22 00:25N 50°34' E 000°17'1315.7
2015-Jul-21 23:34N 50°39' E 000°37'1717.4
2015-Jul-21 22:34N 50°50' E 000°58'1918.9
2015-Jul-21 21:33N 51°02' E 001°22'1919.3
2015-Jul-21 20:34N 51°14' E 001°46'1615.5
2015-Jul-21 19:34N 51°24' E 002°05'1615.8
2015-Jul-21 18:34N 51°23' E 002°30'1313.4
2015-Jul-21 17:33N 51°22' E 002°51'1413.5
2015-Jul-21 16:33N 51°24' E 003°13'1313.1
2015-Jul-21 15:34N 51°25' E 003°34'6 6.3
2015-Jul-21 14:33N 51°23' E 003°43'1110.7
2015-Jul-21 13:34N 51°26' E 003°60'10 9.7
2015-Jul-21 12:33N 51°22' E 004°13'6 6.5
2015-Jul-21 11:33N 51°16' E 004°17'1 1.2
2015-Jul-21 10:33N 51°16' E 004°15'0 0.1
2015-Jul-21 09:33N 51°16' E 004°15'0 0.0
2015-Jul-21 08:33N 51°16' E 004°15'0 0.0
2015-Jul-21 07:33N 51°16' E 004°15'0 0.0
2015-Jul-21 06:33N 51°16' E 004°15'0 0.0
2015-Jul-21 05:33N 51°16' E 004°15'0 0.0
2015-Jul-21 04:30N 51°16' E 004°15'0 0.0
2015-Jul-21 03:33N 51°16' E 004°15'0 0.0
2015-Jul-21 02:33N 51°16' E 004°15'0 0.0
2015-Jul-21 01:33N 51°16' E 004°15'0 0.0
2015-Jul-21 00:33N 51°16' E 004°15'0 0.0
2015-Jul-20 23:33N 51°16' E 004°15'0 0.0
2015-Jul-20 22:33N 51°16' E 004°15'0 0.0
2015-Jul-20 21:33N 51°16' E 004°15'0 0.0
2015-Jul-20 20:33N 51°16' E 004°15'0 0.0
2015-Jul-20 19:33N 51°16' E 004°15'0 0.0
2015-Jul-20 18:33N 51°16' E 004°15'0 0.0
2015-Jul-20 17:33N 51°16' E 004°15'0 0.0
2015-Jul-20 16:33N 51°16' E 004°15'0 0.0
2015-Jul-20 15:33N 51°16' E 004°15'0 0.0
2015-Jul-20 14:33N 51°16' E 004°15'0 0.0
2015-Jul-20 13:33N 51°16' E 004°15'0 0.0
2015-Jul-20 12:33N 51°16' E 004°15'0 0.0
2015-Jul-20 11:33N 51°16' E 004°15'0 0.0
2015-Jul-20 10:33N 51°16' E 004°15'0 0.0
2015-Jul-20 09:33N 51°16' E 004°15'0 0.0
2015-Jul-20 08:30N 51°16' E 004°15'0 0.0
2015-Jul-20 07:31N 51°16' E 004°15'0 0.0
2015-Jul-20 06:31N 51°16' E 004°15'0 0.0
2015-Jul-20 05:31N 51°16' E 004°15'0 0.0
2015-Jul-20 04:31N 51°16' E 004°15'0 0.0
2015-Jul-20 03:31N 51°16' E 004°15'0 0.0
2015-Jul-20 02:31N 51°16' E 004°15'0 0.0
2015-Jul-20 01:31N 51°16' E 004°15'0 0.0
2015-Jul-20 00:31N 51°16' E 004°15'0 0.0
2015-Jul-19 23:31N 51°16' E 004°15'0 0.0
2015-Jul-19 22:31N 51°16' E 004°15'0 0.0
2015-Jul-19 21:31N 51°16' E 004°15'0 0.0
2015-Jul-19 20:31N 51°16' E 004°15'0 0.0
2015-Jul-19 19:28N 51°16' E 004°15'1 1.5
2015-Jul-19 18:33N 51°16' E 004°17'2 2.2
2015-Jul-19 17:33N 51°18' E 004°17'8 7.6
2015-Jul-19 16:33N 51°22' E 004°07'10 9.9
2015-Jul-19 15:33N 51°21' E 003°51'1212.0
2015-Jul-19 14:34N 51°25' E 003°33'1817.8
2015-Jul-19 13:33N 51°24' E 003°05'1616.0
2015-Jul-19 12:33N 51°22' E 002°39'1615.6
2015-Jul-19 11:33N 51°17' E 002°16'1817.9
2015-Jul-19 10:33N 51°09' E 001°50'1515.2
2015-Jul-19 09:33N 50°59' E 001°33'3716.7
2015-Jul-19 07:20N 50°30' E 000°54'2118.3
2015-Jul-19 06:11N 50°25' E 000°23'3216.8
2015-Jul-19 04:18N 50°28' W 000°27'32 8.5
2015-Jul-19 00:31N 50°49' W 001°05'0 0.0
2015-Jul-18 23:31N 50°49' W 001°05'0 0.0
2015-Jul-18 22:31N 50°49' W 001°05'0 0.0
2015-Jul-18 21:31N 50°49' W 001°05'0 0.0
2015-Jul-18 20:31N 50°49' W 001°05'0 0.0
2015-Jul-18 19:31N 50°49' W 001°05'0 0.0
2015-Jul-18 18:31N 50°49' W 001°05'0 0.0
2015-Jul-18 17:31N 50°49' W 001°05'0 0.0
2015-Jul-18 16:31N 50°49' W 001°05'0 0.0
2015-Jul-18 15:31N 50°49' W 001°05'0 0.0
2015-Jul-18 14:31N 50°49' W 001°05'0 0.0
2015-Jul-18 13:31N 50°49' W 001°05'0 0.0
2015-Jul-18 12:31N 50°49' W 001°05'0 0.0
2015-Jul-18 11:31N 50°49' W 001°05'0 0.1
2015-Jul-18 10:33N 50°49' W 001°06'8 7.8
2015-Jul-18 09:33N 50°42' W 000°58'6 6.1
2015-Jul-18 08:34N 50°36' W 000°59'1919.1
2015-Jul-18 07:33N 50°24' W 001°22'2820.5
2015-Jul-18 06:12N 50°08' W 001°58'80918.5
2015-Jul-16 10:29N 38°47' W 012°10'4519.9
2015-Jul-16 08:14N 38°05' W 012°26'1419.4
2015-Jul-16 07:32N 37°51' W 012°31'3819.1
2015-Jul-16 05:32N 37°15' W 012°44'8418.7
2015-Jul-16 01:04N 35°55' W 013°12'1018.8
2015-Jul-16 00:32N 35°45' W 013°16'1818.6
2015-Jul-15 23:33N 35°27' W 013°22'1918.7
2015-Jul-15 22:33N 35°09' W 013°28'1918.9
2015-Jul-15 21:33N 34°51' W 013°34'1818.4
2015-Jul-15 20:33N 34°34' W 013°41'1918.6
2015-Jul-15 19:33N 34°16' W 013°47'1818.5
2015-Jul-15 18:33N 33°58' W 013°53'1918.7
2015-Jul-15 17:32N 33°40' W 013°59'1918.9
2015-Jul-15 16:33N 33°22' W 014°05'3819.0
2015-Jul-15 14:33N 32°45' W 014°18'2419.1
2015-Jul-15 13:16N 32°22' W 014°26'1418.8
2015-Jul-15 12:33N 32°09' W 014°31'1918.9
2015-Jul-15 11:33N 31°51' W 014°37'1919.0
2015-Jul-15 10:33N 31°32' W 014°43'2019.0
2015-Jul-15 09:30N 31°13' W 014°49'1919.0
2015-Jul-15 08:30N 30°55' W 014°55'1819.1
2015-Jul-15 07:33N 30°37' W 015°01'1919.3
2015-Jul-15 06:33N 30°19' W 015°07'2119.3
2015-Jul-15 05:29N 29°59' W 015°14'1819.2
2015-Jul-15 04:33N 29°42' W 015°19'1919.0
2015-Jul-15 03:33N 29°23' W 015°25'1919.0
2015-Jul-15 02:33N 29°05' W 015°31'1919.1
2015-Jul-15 01:34N 28°47' W 015°37'1918.5
2015-Jul-15 00:33N 28°30' W 015°46'5217.5
2015-Jul-14 21:33N 27°46' W 016°18'1817.9
2015-Jul-14 20:32N 27°28' W 016°23'7518.6
2015-Jul-14 16:32N 26°16' W 016°43'  

Dump ship's entire track history